createdAt,value
2023-03-31T00:00:23.305Z,7.09
2023-03-31T00:05:37.463Z,7.25
2023-03-31T00:10:42.672Z,7.22
2023-03-31T00:15:46.042Z,7.13
2023-03-31T00:20:49.183Z,7.26
2023-03-31T00:25:51.494Z,7.41
2023-03-31T00:30:54.127Z,7.36
2023-03-31T00:35:56.805Z,7.40
2023-03-31T00:41:00.033Z,7.57
2023-03-31T00:46:09.267Z,7.71
2023-03-31T00:51:12.427Z,7.78
2023-03-31T00:56:15.673Z,7.85
2023-03-31T01:01:19.340Z,7.99
2023-03-31T01:06:23.831Z,8.12
2023-03-31T01:11:27.423Z,8.13
2023-03-31T01:16:30.137Z,8.19
2023-03-31T01:21:32.970Z,8.24
2023-03-31T01:26:38.673Z,8.24
2023-03-31T01:31:41.980Z,8.06
2023-03-31T01:36:46.686Z,7.88
2023-03-31T01:41:51.219Z,7.75
2023-03-31T01:46:54.052Z,7.92
2023-03-31T01:51:56.451Z,8.05
2023-03-31T01:56:58.907Z,8.15
2023-03-31T02:02:01.295Z,8.25
2023-03-31T02:07:03.785Z,8.31
2023-03-31T02:12:06.107Z,8.33
2023-03-31T02:17:14.181Z,8.36
2023-03-31T02:22:16.516Z,8.36
2023-03-31T02:27:18.860Z,8.42
2023-03-31T02:32:21.514Z,8.42
2023-03-31T02:37:24.018Z,8.42
2023-03-31T02:42:27.141Z,8.47
2023-03-31T02:47:29.890Z,8.48
2023-03-31T02:52:32.233Z,8.52
2023-03-31T02:57:35.175Z,8.51
2023-03-31T03:02:37.818Z,8.28
2023-03-31T03:07:40.272Z,8.14
2023-03-31T03:12:42.575Z,8.05
2023-03-31T03:17:45.419Z,7.95
2023-03-31T03:22:48.682Z,7.94
2023-03-31T03:27:53.044Z,8.03
2023-03-31T03:33:06.465Z,8.04
2023-03-31T03:38:09.741Z,8.08
2023-03-31T03:43:12.486Z,7.97
2023-03-31T03:48:14.834Z,7.96
2023-03-31T03:53:17.628Z,7.89
2023-03-31T03:58:20.113Z,7.76
2023-03-31T04:03:23.047Z,7.66
2023-03-31T04:08:26.286Z,7.66
2023-03-31T04:13:29.423Z,7.70
2023-03-31T04:18:32.572Z,7.72
2023-03-31T04:23:38.453Z,7.74
2023-03-31T04:28:42.859Z,7.73
2023-03-31T04:33:46.165Z,7.72
2023-03-31T04:38:50.655Z,7.78
2023-03-31T04:43:57.664Z,7.81
2023-03-31T04:49:00.943Z,7.85
2023-03-31T04:54:03.688Z,7.93
2023-03-31T04:59:06.254Z,7.78
2023-03-31T05:04:08.594Z,7.78
2023-03-31T05:09:10.912Z,7.75
2023-03-31T05:14:14.111Z,7.76
2023-03-31T05:19:18.218Z,7.82
2023-03-31T05:24:21.346Z,7.77
2023-03-31T05:29:24.048Z,7.72
2023-03-31T05:34:26.339Z,7.73
2023-03-31T05:39:32.834Z,7.70
2023-03-31T05:44:35.633Z,7.76
2023-03-31T05:49:38.622Z,7.78
2023-03-31T05:54:42.002Z,7.92
2023-03-31T05:59:44.747Z,8.11
2023-03-31T06:04:47.021Z,8.22
2023-03-31T06:09:49.363Z,8.38
2023-03-31T06:14:52.222Z,8.81
2023-03-31T06:19:54.895Z,8.87
2023-03-31T06:24:57.569Z,8.79
2023-03-31T06:30:00.689Z,8.82
2023-03-31T06:35:03.976Z,9.19
2023-03-31T06:40:07.223Z,9.49
2023-03-31T06:45:09.627Z,9.74
2023-03-31T06:50:12.107Z,9.74
2023-03-31T06:55:16.042Z,9.82
2023-03-31T07:00:28.595Z,9.82
2023-03-31T07:05:36.312Z,9.62
2023-03-31T07:10:39.592Z,9.61
2023-03-31T07:15:41.898Z,9.30
2023-03-31T07:20:45.052Z,8.94
2023-03-31T07:25:47.719Z,8.61
2023-03-31T07:30:50.126Z,8.52
2023-03-31T07:36:11.576Z,8.49
2023-03-31T07:41:15.743Z,8.51
2023-03-31T07:46:19.061Z,8.61
2023-03-31T07:51:21.588Z,8.63
2023-03-31T07:56:23.964Z,8.70
2023-03-31T08:01:28.851Z,8.84
2023-03-31T08:06:31.522Z,9.13
2023-03-31T08:11:34.688Z,9.59
2023-03-31T08:16:36.987Z,9.92
2023-03-31T08:21:44.665Z,9.79
2023-03-31T08:26:47.124Z,9.74
2023-03-31T08:31:59.554Z,10.00
2023-03-31T08:37:04.520Z,10.15
2023-03-31T08:42:11.422Z,10.33
2023-03-31T08:47:15.082Z,10.38
2023-03-31T08:52:17.596Z,10.20
2023-03-31T08:57:20.639Z,9.81
2023-03-31T09:02:23.669Z,9.82
2023-03-31T09:07:27.124Z,10.05
2023-03-31T09:12:29.412Z,10.26
2023-03-31T09:17:32.608Z,10.39
2023-03-31T09:22:36.688Z,10.80
2023-03-31T09:27:38.998Z,11.55
2023-03-31T09:32:41.403Z,11.76
2023-03-31T09:37:43.822Z,12.04
2023-03-31T09:42:46.523Z,12.99
2023-03-31T09:47:48.983Z,12.61
2023-03-31T09:52:51.656Z,12.34
2023-03-31T09:57:54.405Z,12.40
2023-03-31T10:02:56.813Z,12.37
2023-03-31T10:07:59.909Z,12.32
2023-03-31T10:13:02.530Z,12.27
2023-03-31T10:18:04.973Z,12.67
2023-03-31T10:23:07.734Z,13.06
2023-03-31T10:28:10.238Z,13.13
2023-03-31T10:33:21.998Z,13.79
2023-03-31T10:38:25.336Z,14.72
2023-03-31T10:43:27.650Z,15.20
2023-03-31T10:48:30.679Z,15.07
2023-03-31T10:53:33.004Z,15.02
2023-03-31T10:58:35.371Z,14.43
2023-03-31T11:03:38.160Z,14.78
2023-03-31T11:08:40.523Z,14.29
2023-03-31T11:13:43.331Z,14.22
2023-03-31T11:18:46.627Z,13.85
2023-03-31T11:23:49.253Z,12.98
2023-03-31T11:28:51.594Z,11.25
2023-03-31T11:33:54.278Z,10.02
2023-03-31T11:39:09.676Z,10.00
2023-03-31T11:44:12.251Z,10.51
2023-03-31T11:49:17.706Z,10.89
2023-03-31T11:54:20.964Z,11.48
2023-03-31T11:59:23.355Z,11.54
2023-03-31T12:04:25.771Z,11.75
2023-03-31T12:09:28.333Z,12.21
2023-03-31T12:14:30.690Z,12.72
2023-03-31T12:19:33.882Z,13.21
2023-03-31T12:24:36.343Z,13.51
2023-03-31T12:29:38.848Z,13.58
2023-03-31T12:34:51.158Z,13.37
2023-03-31T12:39:53.647Z,13.19
2023-03-31T12:44:57.012Z,13.17
2023-03-31T12:49:59.375Z,13.28
2023-03-31T12:55:01.757Z,13.10
2023-03-31T13:00:08.300Z,13.31
2023-03-31T13:05:11.111Z,13.62
2023-03-31T13:10:14.554Z,13.49
2023-03-31T13:15:17.016Z,12.99
2023-03-31T13:20:19.660Z,12.52
2023-03-31T13:25:25.775Z,12.10
2023-03-31T13:30:28.314Z,12.27
2023-03-31T13:35:31.453Z,12.36
2023-03-31T13:40:34.853Z,12.41
2023-03-31T13:45:37.285Z,12.84
2023-03-31T13:50:39.667Z,13.23
2023-03-31T13:55:42.194Z,13.44
2023-03-31T14:00:45.416Z,13.34
2023-03-31T14:05:48.412Z,12.68
2023-03-31T14:10:50.824Z,12.42
2023-03-31T14:15:53.748Z,12.29
2023-03-31T14:20:57.362Z,12.34
2023-03-31T14:26:09.750Z,12.61
2023-03-31T14:31:13.622Z,12.76
2023-03-31T14:36:19.307Z,12.53
2023-03-31T14:41:29.798Z,12.10
2023-03-31T14:46:42.312Z,10.06
2023-03-31T14:51:45.574Z,8.76
2023-03-31T14:56:48.768Z,8.42
2023-03-31T15:01:52.130Z,7.95
2023-03-31T15:07:05.016Z,8.06
2023-03-31T15:12:17.326Z,9.16
2023-03-31T15:17:19.666Z,9.58
2023-03-31T15:22:32.574Z,9.45
2023-03-31T15:27:43.015Z,9.45
2023-03-31T15:32:46.219Z,9.48
2023-03-31T15:37:48.844Z,9.69
2023-03-31T15:43:01.963Z,9.87
2023-03-31T15:48:14.599Z,9.86
2023-03-31T15:53:17.358Z,10.12
2023-03-31T15:58:19.845Z,10.32
2023-03-31T16:03:24.277Z,10.38
2023-03-31T16:08:26.903Z,10.59
2023-03-31T16:13:39.413Z,10.70
2023-03-31T16:18:41.904Z,10.81
2023-03-31T16:23:45.471Z,10.76
2023-03-31T16:28:48.940Z,10.61
2023-03-31T16:33:53.701Z,10.63
2023-03-31T16:38:57.904Z,10.39
2023-03-31T16:44:01.622Z,10.28
2023-03-31T16:49:04.541Z,10.35
2023-03-31T16:54:08.071Z,10.38
2023-03-31T16:59:10.645Z,10.09
2023-03-31T17:04:13.633Z,8.39
2023-03-31T17:09:16.838Z,7.63
2023-03-31T17:14:20.916Z,7.22
2023-03-31T17:19:27.340Z,7.05
2023-03-31T17:24:29.750Z,7.09
2023-03-31T17:29:32.274Z,7.04
2023-03-31T17:34:35.363Z,6.93
2023-03-31T17:39:37.915Z,6.83
2023-03-31T17:44:40.702Z,6.81
2023-03-31T17:49:43.367Z,6.82
2023-03-31T17:54:48.618Z,6.97
2023-03-31T17:59:51.828Z,7.10
2023-03-31T18:04:55.345Z,7.17
2023-03-31T18:09:57.640Z,7.15
2023-03-31T18:15:00.028Z,7.10
2023-03-31T18:20:02.430Z,7.07
2023-03-31T18:25:05.547Z,6.98
2023-03-31T18:30:08.118Z,6.84
2023-03-31T18:35:10.509Z,6.83
2023-03-31T18:40:14.888Z,6.88
2023-03-31T18:45:18.005Z,6.84
2023-03-31T18:50:21.182Z,6.75
2023-03-31T18:55:24.298Z,6.66
2023-03-31T19:00:31.514Z,6.63
2023-03-31T19:05:34.984Z,6.62
2023-03-31T19:10:38.097Z,6.59
2023-03-31T19:15:40.494Z,6.57
2023-03-31T19:20:43.013Z,6.60
2023-03-31T19:25:46.184Z,6.63
2023-03-31T19:30:48.652Z,6.62
2023-03-31T19:35:51.363Z,6.62
2023-03-31T19:40:54.487Z,6.63
2023-03-31T19:45:57.830Z,6.67
2023-03-31T19:51:04.033Z,6.66
2023-03-31T19:56:08.018Z,6.77
2023-03-31T20:01:12.252Z,6.81
2023-03-31T20:06:15.458Z,6.79
2023-03-31T20:11:18.044Z,6.83
2023-03-31T20:16:20.490Z,6.86
2023-03-31T20:21:23.116Z,6.86
2023-03-31T20:26:26.241Z,6.94
2023-03-31T20:31:28.795Z,7.01
2023-03-31T20:36:31.869Z,7.02
2023-03-31T20:41:40.439Z,7.10
2023-03-31T20:46:43.233Z,7.13
2023-03-31T20:51:47.081Z,7.12
2023-03-31T20:56:50.428Z,7.11
2023-03-31T21:01:54.331Z,7.17
2023-03-31T21:06:56.780Z,7.32
2023-03-31T21:12:00.879Z,7.16
2023-03-31T21:17:04.089Z,7.27
2023-03-31T21:22:06.531Z,7.35
2023-03-31T21:27:08.972Z,7.41
2023-03-31T21:32:11.430Z,7.30
2023-03-31T21:37:13.791Z,7.25
2023-03-31T21:42:17.318Z,7.28
2023-03-31T21:47:19.690Z,7.30
2023-03-31T21:52:32.014Z,7.38
2023-03-31T21:57:37.805Z,7.28
2023-03-31T22:02:40.232Z,7.26
2023-03-31T22:07:42.937Z,7.21
2023-03-31T22:12:46.084Z,7.21
2023-03-31T22:17:48.443Z,7.16
2023-03-31T22:22:51.025Z,7.15
2023-03-31T22:27:53.372Z,7.20
2023-03-31T22:32:56.076Z,7.23
2023-03-31T22:37:58.613Z,7.23
2023-03-31T22:43:01.635Z,7.21
2023-03-31T22:48:04.242Z,7.22
2023-03-31T22:53:06.863Z,7.38
2023-03-31T22:58:09.247Z,7.38
2023-03-31T23:03:11.659Z,7.39
2023-03-31T23:08:14.458Z,7.44
2023-03-31T23:13:17.662Z,7.42
2023-03-31T23:18:20.504Z,7.32
2023-03-31T23:23:24.212Z,7.30
2023-03-31T23:28:26.880Z,7.29
2023-03-31T23:33:29.198Z,7.27
2023-03-31T23:38:32.255Z,7.29
2023-03-31T23:43:35.365Z,7.25
2023-03-31T23:48:38.161Z,7.21
2023-03-31T23:53:40.557Z,7.14
2023-03-31T23:58:44.946Z,7.12
